sensor_id;sensor_type;location;lat;lon;timestamp;P1;durP1;ratioP1;P2;durP2;ratioP2
11582;SDS011;34299;50.820;4.548;2024-01-06T00:01:04;4.23;;;2.37;;
11582;SDS011;34299;50.820;4.548;2024-01-06T00:03:31;4.00;;;2.50;;
11582;SDS011;34299;50.820;4.548;2024-01-06T00:05:58;3.37;;;2.37;;
11582;SDS011;34299;50.820;4.548;2024-01-06T00:08:25;3.50;;;2.10;;
11582;SDS011;34299;50.820;4.548;2024-01-06T00:10:52;5.43;;;2.47;;
11582;SDS011;34299;50.820;4.548;2024-01-06T00:13:20;5.97;;;2.40;;
11582;SDS011;34299;50.820;4.548;2024-01-06T00:15:48;5.10;;;2.23;;
11582;SDS011;34299;50.820;4.548;2024-01-06T00:18:15;4.53;;;2.37;;
11582;SDS011;34299;50.820;4.548;2024-01-06T00:20:42;5.27;;;2.93;;
11582;SDS011;34299;50.820;4.548;2024-01-06T00:23:09;2.70;;;2.37;;
11582;SDS011;34299;50.820;4.548;2024-01-06T00:25:36;4.63;;;2.40;;
11582;SDS011;34299;50.820;4.548;2024-01-06T00:28:03;3.60;;;2.47;;
11582;SDS011;34299;50.820;4.548;2024-01-06T00:30:30;3.80;;;2.63;;
11582;SDS011;34299;50.820;4.548;2024-01-06T00:32:59;6.87;;;2.70;;
11582;SDS011;34299;50.820;4.548;2024-01-06T00:35:26;6.43;;;3.13;;
11582;SDS011;34299;50.820;4.548;2024-01-06T00:37:52;5.93;;;3.17;;
11582;SDS011;34299;50.820;4.548;2024-01-06T00:40:20;5.67;;;3.40;;
11582;SDS011;34299;50.820;4.548;2024-01-06T00:42:47;6.17;;;3.17;;
11582;SDS011;34299;50.820;4.548;2024-01-06T00:45:14;4.13;;;2.97;;
11582;SDS011;34299;50.820;4.548;2024-01-06T00:47:41;3.87;;;2.77;;
11582;SDS011;34299;50.820;4.548;2024-01-06T00:50:09;4.90;;;3.10;;
11582;SDS011;34299;50.820;4.548;2024-01-06T00:52:37;3.40;;;2.73;;
11582;SDS011;34299;50.820;4.548;2024-01-06T00:55:04;4.10;;;2.80;;
11582;SDS011;34299;50.820;4.548;2024-01-06T00:57:31;6.13;;;2.70;;
11582;SDS011;34299;50.820;4.548;2024-01-06T00:59:58;6.60;;;3.33;;
11582;SDS011;34299;50.820;4.548;2024-01-06T01:02:24;2.67;;;2.07;;
11582;SDS011;34299;50.820;4.548;2024-01-06T01:04:51;4.73;;;2.40;;
11582;SDS011;34299;50.820;4.548;2024-01-06T01:07:20;4.60;;;2.70;;
11582;SDS011;34299;50.820;4.548;2024-01-06T01:09:47;5.33;;;2.00;;
11582;SDS011;34299;50.820;4.548;2024-01-06T01:12:14;2.57;;;1.67;;
11582;SDS011;34299;50.820;4.548;2024-01-06T01:14:41;2.57;;;1.90;;
11582;SDS011;34299;50.820;4.548;2024-01-06T01:17:08;2.60;;;2.00;;
11582;SDS011;34299;50.820;4.548;2024-01-06T01:19:35;2.40;;;2.07;;
11582;SDS011;34299;50.820;4.548;2024-01-06T01:22:02;3.93;;;1.83;;
11582;SDS011;34299;50.820;4.548;2024-01-06T01:24:30;2.40;;;1.80;;
11582;SDS011;34299;50.820;4.548;2024-01-06T01:26:57;2.33;;;1.67;;
11582;SDS011;34299;50.820;4.548;2024-01-06T01:29:24;2.37;;;1.80;;
11582;SDS011;34299;50.820;4.548;2024-01-06T01:31:51;2.70;;;1.83;;
11582;SDS011;34299;50.820;4.548;2024-01-06T01:34:18;3.60;;;1.47;;
11582;SDS011;34299;50.820;4.548;2024-01-06T01:36:45;1.83;;;1.40;;
11582;SDS011;34299;50.820;4.548;2024-01-06T01:39:12;2.87;;;1.37;;
11582;SDS011;34299;50.820;4.548;2024-01-06T01:41:41;1.50;;;1.40;;
11582;SDS011;34299;50.820;4.548;2024-01-06T01:44:07;1.40;;;1.30;;
11582;SDS011;34299;50.820;4.548;2024-01-06T01:46:34;2.77;;;1.47;;
11582;SDS011;34299;50.820;4.548;2024-01-06T01:49:03;5.87;;;1.43;;
11582;SDS011;34299;50.820;4.548;2024-01-06T01:51:31;1.97;;;1.77;;
11582;SDS011;34299;50.820;4.548;2024-01-06T01:53:59;2.00;;;1.60;;
11582;SDS011;34299;50.820;4.548;2024-01-06T01:56:27;2.73;;;1.83;;
11582;SDS011;34299;50.820;4.548;2024-01-06T01:58:56;1.87;;;1.70;;
11582;SDS011;34299;50.820;4.548;2024-01-06T02:01:24;2.90;;;2.07;;
11582;SDS011;34299;50.820;4.548;2024-01-06T02:03:51;1.87;;;1.70;;
11582;SDS011;34299;50.820;4.548;2024-01-06T02:06:19;1.80;;;1.30;;
11582;SDS011;34299;50.820;4.548;2024-01-06T02:08:46;2.27;;;1.50;;
11582;SDS011;34299;50.820;4.548;2024-01-06T02:11:13;3.00;;;2.17;;
11582;SDS011;34299;50.820;4.548;2024-01-06T02:13:39;1.63;;;1.53;;
11582;SDS011;34299;50.820;4.548;2024-01-06T02:16:08;3.73;;;2.40;;
11582;SDS011;34299;50.820;4.548;2024-01-06T02:18:35;1.97;;;1.50;;
11582;SDS011;34299;50.820;4.548;2024-01-06T02:21:02;3.90;;;1.70;;
11582;SDS011;34299;50.820;4.548;2024-01-06T02:23:30;2.03;;;1.80;;
11582;SDS011;34299;50.820;4.548;2024-01-06T02:26:00;1.67;;;1.50;;
11582;SDS011;34299;50.820;4.548;2024-01-06T02:28:27;1.40;;;1.23;;
11582;SDS011;34299;50.820;4.548;2024-01-06T02:30:54;2.87;;;1.60;;
11582;SDS011;34299;50.820;4.548;2024-01-06T02:33:21;3.13;;;1.93;;
11582;SDS011;34299;50.820;4.548;2024-01-06T02:35:49;1.70;;;1.17;;
11582;SDS011;34299;50.820;4.548;2024-01-06T02:38:16;3.03;;;1.50;;
11582;SDS011;34299;50.820;4.548;2024-01-06T02:40:44;1.47;;;1.30;;
11582;SDS011;34299;50.820;4.548;2024-01-06T02:43:11;1.47;;;1.37;;
11582;SDS011;34299;50.820;4.548;2024-01-06T02:45:38;2.07;;;1.50;;
11582;SDS011;34299;50.820;4.548;2024-01-06T02:48:05;1.30;;;1.20;;
11582;SDS011;34299;50.820;4.548;2024-01-06T02:50:33;1.50;;;1.03;;
11582;SDS011;34299;50.820;4.548;2024-01-06T02:53:00;1.97;;;1.30;;
11582;SDS011;34299;50.820;4.548;2024-01-06T02:55:27;1.60;;;1.50;;
11582;SDS011;34299;50.820;4.548;2024-01-06T02:57:55;2.33;;;1.50;;
11582;SDS011;34299;50.820;4.548;2024-01-06T03:00:22;1.57;;;1.10;;
11582;SDS011;34299;50.820;4.548;2024-01-06T03:02:50;1.53;;;1.37;;
11582;SDS011;34299;50.820;4.548;2024-01-06T03:05:17;2.13;;;1.50;;
11582;SDS011;34299;50.820;4.548;2024-01-06T03:07:44;1.67;;;1.57;;
11582;SDS011;34299;50.820;4.548;2024-01-06T03:10:11;1.30;;;1.07;;
11582;SDS011;34299;50.820;4.548;2024-01-06T03:12:38;1.93;;;1.40;;
11582;SDS011;34299;50.820;4.548;2024-01-06T03:15:08;1.80;;;1.57;;
11582;SDS011;34299;50.820;4.548;2024-01-06T03:17:35;1.77;;;1.67;;
11582;SDS011;34299;50.820;4.548;2024-01-06T03:20:02;1.07;;;0.93;;
11582;SDS011;34299;50.820;4.548;2024-01-06T03:22:30;1.53;;;1.37;;
11582;SDS011;34299;50.820;4.548;2024-01-06T03:24:57;2.00;;;1.80;;
11582;SDS011;34299;50.820;4.548;2024-01-06T03:27:24;3.00;;;2.00;;
11582;SDS011;34299;50.820;4.548;2024-01-06T03:29:51;1.93;;;1.70;;
11582;SDS011;34299;50.820;4.548;2024-01-06T03:32:19;5.10;;;2.00;;
11582;SDS011;34299;50.820;4.548;2024-01-06T03:34:46;2.20;;;1.93;;
11582;SDS011;34299;50.820;4.548;2024-01-06T03:37:13;4.10;;;2.40;;
11582;SDS011;34299;50.820;4.548;2024-01-06T03:39:40;4.80;;;2.03;;
11582;SDS011;34299;50.820;4.548;2024-01-06T03:42:07;2.83;;;2.40;;
11582;SDS011;34299;50.820;4.548;2024-01-06T03:44:34;2.77;;;2.33;;
11582;SDS011;34299;50.820;4.548;2024-01-06T03:47:01;5.00;;;2.73;;
11582;SDS011;34299;50.820;4.548;2024-01-06T03:49:29;5.10;;;3.00;;
11582;SDS011;34299;50.820;4.548;2024-01-06T03:51:56;3.77;;;3.07;;
11582;SDS011;34299;50.820;4.548;2024-01-06T03:54:23;4.17;;;3.13;;
11582;SDS011;34299;50.820;4.548;2024-01-06T03:56:50;5.67;;;4.10;;
11582;SDS011;34299;50.820;4.548;2024-01-06T03:59:17;5.90;;;3.57;;
11582;SDS011;34299;50.820;4.548;2024-01-06T04:01:43;6.20;;;3.47;;
11582;SDS011;34299;50.820;4.548;2024-01-06T04:04:09;6.00;;;4.03;;
11582;SDS011;34299;50.820;4.548;2024-01-06T04:06:38;9.57;;;4.60;;
11582;SDS011;34299;50.820;4.548;2024-01-06T04:09:05;7.23;;;4.97;;
11582;SDS011;34299;50.820;4.548;2024-01-06T04:11:32;6.10;;;3.93;;
11582;SDS011;34299;50.820;4.548;2024-01-06T04:13:59;6.00;;;4.10;;
11582;SDS011;34299;50.820;4.548;2024-01-06T04:16:26;9.20;;;4.47;;
11582;SDS011;34299;50.820;4.548;2024-01-06T04:18:53;9.87;;;4.67;;
11582;SDS011;34299;50.820;4.548;2024-01-06T04:21:20;10.67;;;5.27;;
11582;SDS011;34299;50.820;4.548;2024-01-06T04:23:48;7.30;;;4.70;;
11582;SDS011;34299;50.820;4.548;2024-01-06T04:26:15;10.40;;;5.37;;
11582;SDS011;34299;50.820;4.548;2024-01-06T04:28:42;9.90;;;5.30;;
11582;SDS011;34299;50.820;4.548;2024-01-06T04:31:09;7.37;;;5.27;;
11582;SDS011;34299;50.820;4.548;2024-01-06T04:33:36;12.93;;;5.90;;
11582;SDS011;34299;50.820;4.548;2024-01-06T04:36:04;10.23;;;5.57;;
11582;SDS011;34299;50.820;4.548;2024-01-06T04:38:31;9.50;;;4.80;;
11582;SDS011;34299;50.820;4.548;2024-01-06T04:41:00;9.77;;;5.33;;
11582;SDS011;34299;50.820;4.548;2024-01-06T04:43:26;11.60;;;5.23;;
11582;SDS011;34299;50.820;4.548;2024-01-06T04:45:53;8.50;;;4.73;;
11582;SDS011;34299;50.820;4.548;2024-01-06T04:48:22;8.13;;;4.50;;
11582;SDS011;34299;50.820;4.548;2024-01-06T04:50:49;9.57;;;4.80;;
11582;SDS011;34299;50.820;4.548;2024-01-06T04:53:16;9.93;;;4.50;;
11582;SDS011;34299;50.820;4.548;2024-01-06T04:55:43;11.90;;;4.90;;
11582;SDS011;34299;50.820;4.548;2024-01-06T04:58:11;10.47;;;4.90;;
11582;SDS011;34299;50.820;4.548;2024-01-06T05:00:38;9.50;;;4.77;;
11582;SDS011;34299;50.820;4.548;2024-01-06T05:03:05;8.77;;;4.77;;
11582;SDS011;34299;50.820;4.548;2024-01-06T05:05:32;7.00;;;4.50;;
11582;SDS011;34299;50.820;4.548;2024-01-06T05:07:59;9.13;;;4.27;;
11582;SDS011;34299;50.820;4.548;2024-01-06T05:10:26;7.03;;;4.10;;
11582;SDS011;34299;50.820;4.548;2024-01-06T05:12:53;8.63;;;4.47;;
11582;SDS011;34299;50.820;4.548;2024-01-06T05:15:21;8.27;;;4.83;;
11582;SDS011;34299;50.820;4.548;2024-01-06T05:17:48;10.30;;;4.63;;
11582;SDS011;34299;50.820;4.548;2024-01-06T05:20:15;6.00;;;3.90;;
11582;SDS011;34299;50.820;4.548;2024-01-06T05:22:42;5.77;;;3.83;;
11582;SDS011;34299;50.820;4.548;2024-01-06T05:25:09;5.60;;;3.60;;
11582;SDS011;34299;50.820;4.548;2024-01-06T05:27:36;6.77;;;3.60;;
11582;SDS011;34299;50.820;4.548;2024-01-06T05:30:03;8.63;;;4.33;;
11582;SDS011;34299;50.820;4.548;2024-01-06T05:32:32;8.47;;;3.93;;
11582;SDS011;34299;50.820;4.548;2024-01-06T05:34:59;6.03;;;3.77;;
11582;SDS011;34299;50.820;4.548;2024-01-06T05:37:26;6.83;;;3.80;;
11582;SDS011;34299;50.820;4.548;2024-01-06T05:39:53;5.00;;;3.33;;
11582;SDS011;34299;50.820;4.548;2024-01-06T05:42:20;7.20;;;3.67;;
11582;SDS011;34299;50.820;4.548;2024-01-06T05:44:47;5.53;;;3.60;;
11582;SDS011;34299;50.820;4.548;2024-01-06T05:47:14;7.97;;;3.73;;
11582;SDS011;34299;50.820;4.548;2024-01-06T05:49:45;4.23;;;3.40;;
11582;SDS011;34299;50.820;4.548;2024-01-06T05:52:12;5.57;;;3.40;;
11582;SDS011;34299;50.820;4.548;2024-01-06T05:54:40;5.33;;;3.73;;
11582;SDS011;34299;50.820;4.548;2024-01-06T05:57:07;5.53;;;3.00;;
11582;SDS011;34299;50.820;4.548;2024-01-06T05:59:34;5.17;;;3.20;;
11582;SDS011;34299;50.820;4.548;2024-01-06T06:02:01;5.63;;;3.30;;
11582;SDS011;34299;50.820;4.548;2024-01-06T06:04:28;6.17;;;3.63;;
11582;SDS011;34299;50.820;4.548;2024-01-06T06:06:57;7.63;;;3.47;;
11582;SDS011;34299;50.820;4.548;2024-01-06T06:09:24;6.00;;;3.57;;
11582;SDS011;34299;50.820;4.548;2024-01-06T06:11:53;3.83;;;2.93;;
11582;SDS011;34299;50.820;4.548;2024-01-06T06:14:20;3.43;;;2.37;;
11582;SDS011;34299;50.820;4.548;2024-01-06T06:16:47;3.77;;;2.70;;
11582;SDS011;34299;50.820;4.548;2024-01-06T06:19:14;4.57;;;3.17;;
11582;SDS011;34299;50.820;4.548;2024-01-06T06:21:43;3.77;;;2.30;;
11582;SDS011;34299;50.820;4.548;2024-01-06T06:24:11;5.07;;;2.33;;
11582;SDS011;34299;50.820;4.548;2024-01-06T06:26:38;7.43;;;3.00;;
11582;SDS011;34299;50.820;4.548;2024-01-06T06:29:05;6.07;;;2.90;;
11582;SDS011;34299;50.820;4.548;2024-01-06T06:31:32;3.10;;;2.13;;
11582;SDS011;34299;50.820;4.548;2024-01-06T06:33:59;6.33;;;2.70;;
11582;SDS011;34299;50.820;4.548;2024-01-06T06:36:26;5.33;;;3.37;;
11582;SDS011;34299;50.820;4.548;2024-01-06T06:38:54;3.97;;;3.03;;
11582;SDS011;34299;50.820;4.548;2024-01-06T06:41:24;3.37;;;2.10;;
11582;SDS011;34299;50.820;4.548;2024-01-06T06:43:51;5.03;;;3.13;;
11582;SDS011;34299;50.820;4.548;2024-01-06T06:46:18;5.07;;;2.77;;
11582;SDS011;34299;50.820;4.548;2024-01-06T06:48:45;3.73;;;2.53;;
11582;SDS011;34299;50.820;4.548;2024-01-06T06:51:12;4.10;;;3.20;;
11582;SDS011;34299;50.820;4.548;2024-01-06T06:53:38;4.10;;;2.83;;
11582;SDS011;34299;50.820;4.548;2024-01-06T06:56:05;4.83;;;3.17;;
11582;SDS011;34299;50.820;4.548;2024-01-06T06:58:34;5.33;;;2.93;;
11582;SDS011;34299;50.820;4.548;2024-01-06T07:01:01;4.23;;;2.83;;
11582;SDS011;34299;50.820;4.548;2024-01-06T07:03:28;6.00;;;2.87;;
11582;SDS011;34299;50.820;4.548;2024-01-06T07:05:55;4.40;;;2.83;;
11582;SDS011;34299;50.820;4.548;2024-01-06T07:08:22;3.80;;;2.73;;
11582;SDS011;34299;50.820;4.548;2024-01-06T07:10:49;2.70;;;2.50;;
11582;SDS011;34299;50.820;4.548;2024-01-06T07:13:15;3.03;;;2.23;;
11582;SDS011;34299;50.820;4.548;2024-01-06T07:15:44;3.47;;;2.53;;
11582;SDS011;34299;50.820;4.548;2024-01-06T07:18:11;3.53;;;2.43;;
11582;SDS011;34299;50.820;4.548;2024-01-06T07:20:38;3.40;;;2.93;;
11582;SDS011;34299;50.820;4.548;2024-01-06T07:23:05;5.63;;;2.03;;
11582;SDS011;34299;50.820;4.548;2024-01-06T07:25:32;3.53;;;2.30;;
11582;SDS011;34299;50.820;4.548;2024-01-06T07:27:59;4.70;;;2.80;;
11582;SDS011;34299;50.820;4.548;2024-01-06T07:30:26;3.57;;;2.97;;
11582;SDS011;34299;50.820;4.548;2024-01-06T07:32:54;3.80;;;2.97;;
11582;SDS011;34299;50.820;4.548;2024-01-06T07:35:21;3.37;;;2.60;;
11582;SDS011;34299;50.820;4.548;2024-01-06T07:37:48;3.30;;;2.43;;
11582;SDS011;34299;50.820;4.548;2024-01-06T07:40:15;6.83;;;3.40;;
11582;SDS011;34299;50.820;4.548;2024-01-06T07:42:42;3.17;;;2.87;;
11582;SDS011;34299;50.820;4.548;2024-01-06T07:45:09;4.30;;;2.93;;
11582;SDS011;34299;50.820;4.548;2024-01-06T07:47:37;6.23;;;3.50;;
11582;SDS011;34299;50.820;4.548;2024-01-06T07:50:06;3.37;;;2.13;;
11582;SDS011;34299;50.820;4.548;2024-01-06T07:52:33;4.10;;;2.70;;
11582;SDS011;34299;50.820;4.548;2024-01-06T07:55:00;4.13;;;2.60;;
11582;SDS011;34299;50.820;4.548;2024-01-06T07:57:28;6.47;;;3.30;;
11582;SDS011;34299;50.820;4.548;2024-01-06T07:59:55;6.23;;;3.60;;
11582;SDS011;34299;50.820;4.548;2024-01-06T08:02:22;3.70;;;3.33;;
11582;SDS011;34299;50.820;4.548;2024-01-06T08:04:49;5.07;;;3.30;;
11582;SDS011;34299;50.820;4.548;2024-01-06T08:07:17;4.17;;;2.90;;
11582;SDS011;34299;50.820;4.548;2024-01-06T08:09:44;4.93;;;3.30;;
11582;SDS011;34299;50.820;4.548;2024-01-06T08:12:11;6.43;;;3.73;;
11582;SDS011;34299;50.820;4.548;2024-01-06T08:14:38;6.80;;;3.33;;
11582;SDS011;34299;50.820;4.548;2024-01-06T08:17:05;4.70;;;3.47;;
11582;SDS011;34299;50.820;4.548;2024-01-06T08:19:32;4.33;;;3.20;;
11582;SDS011;34299;50.820;4.548;2024-01-06T08:22:02;6.30;;;3.73;;
11582;SDS011;34299;50.820;4.548;2024-01-06T08:24:29;8.87;;;3.67;;
11582;SDS011;34299;50.820;4.548;2024-01-06T08:26:56;6.83;;;3.50;;
11582;SDS011;34299;50.820;4.548;2024-01-06T08:29:23;4.10;;;2.87;;
11582;SDS011;34299;50.820;4.548;2024-01-06T08:31:50;6.07;;;3.30;;
11582;SDS011;34299;50.820;4.548;2024-01-06T08:34:19;4.87;;;3.17;;
11582;SDS011;34299;50.820;4.548;2024-01-06T08:36:46;5.30;;;3.00;;
11582;SDS011;34299;50.820;4.548;2024-01-06T08:39:13;4.00;;;3.20;;
11582;SDS011;34299;50.820;4.548;2024-01-06T08:41:42;4.93;;;3.67;;
11582;SDS011;34299;50.820;4.548;2024-01-06T08:44:09;5.60;;;3.33;;
11582;SDS011;34299;50.820;4.548;2024-01-06T08:46:36;5.50;;;3.73;;
11582;SDS011;34299;50.820;4.548;2024-01-06T08:49:03;4.10;;;3.30;;
11582;SDS011;34299;50.820;4.548;2024-01-06T08:51:30;10.57;;;3.13;;
11582;SDS011;34299;50.820;4.548;2024-01-06T08:53:57;6.90;;;3.50;;
11582;SDS011;34299;50.820;4.548;2024-01-06T08:56:24;5.80;;;3.67;;
11582;SDS011;34299;50.820;4.548;2024-01-06T08:58:53;9.20;;;4.10;;
11582;SDS011;34299;50.820;4.548;2024-01-06T09:01:20;7.57;;;3.27;;
11582;SDS011;34299;50.820;4.548;2024-01-06T09:03:47;4.97;;;3.43;;
11582;SDS011;34299;50.820;4.548;2024-01-06T09:06:15;6.03;;;4.20;;
11582;SDS011;34299;50.820;4.548;2024-01-06T09:08:42;6.17;;;3.60;;
11582;SDS011;34299;50.820;4.548;2024-01-06T09:11:09;5.50;;;3.50;;
11582;SDS011;34299;50.820;4.548;2024-01-06T09:13:35;4.17;;;3.10;;
11582;SDS011;34299;50.820;4.548;2024-01-06T09:16:04;8.43;;;3.70;;
11582;SDS011;34299;50.820;4.548;2024-01-06T09:18:31;5.67;;;4.20;;
11582;SDS011;34299;50.820;4.548;2024-01-06T09:20:58;7.13;;;4.40;;
11582;SDS011;34299;50.820;4.548;2024-01-06T09:23:25;7.53;;;3.90;;
11582;SDS011;34299;50.820;4.548;2024-01-06T09:25:52;7.07;;;3.90;;
11582;SDS011;34299;50.820;4.548;2024-01-06T09:28:18;5.60;;;3.40;;
11582;SDS011;34299;50.820;4.548;2024-01-06T09:30:46;5.50;;;3.27;;
11582;SDS011;34299;50.820;4.548;2024-01-06T09:33:14;9.40;;;3.80;;
11582;SDS011;34299;50.820;4.548;2024-01-06T09:35:42;4.37;;;3.20;;
11582;SDS011;34299;50.820;4.548;2024-01-06T09:38:10;4.37;;;2.70;;
11582;SDS011;34299;50.820;4.548;2024-01-06T09:40:40;6.50;;;2.47;;
11582;SDS011;34299;50.820;4.548;2024-01-06T09:43:08;4.97;;;3.30;;
11582;SDS011;34299;50.820;4.548;2024-01-06T09:45:36;4.83;;;2.83;;
11582;SDS011;34299;50.820;4.548;2024-01-06T09:48:04;4.67;;;2.97;;
11582;SDS011;34299;50.820;4.548;2024-01-06T09:50:39;4.50;;;2.87;;
11582;SDS011;34299;50.820;4.548;2024-01-06T09:53:08;2.80;;;2.20;;
11582;SDS011;34299;50.820;4.548;2024-01-06T09:55:37;3.60;;;2.43;;
11582;SDS011;34299;50.820;4.548;2024-01-06T09:58:04;4.90;;;3.07;;
11582;SDS011;34299;50.820;4.548;2024-01-06T10:00:32;3.77;;;2.67;;
11582;SDS011;34299;50.820;4.548;2024-01-06T10:02:59;4.53;;;2.70;;
11582;SDS011;34299;50.820;4.548;2024-01-06T10:05:26;4.80;;;2.43;;
11582;SDS011;34299;50.820;4.548;2024-01-06T10:07:54;3.27;;;2.17;;
11582;SDS011;34299;50.820;4.548;2024-01-06T10:10:22;3.33;;;2.40;;
11582;SDS011;34299;50.820;4.548;2024-01-06T10:12:52;3.10;;;2.23;;
11582;SDS011;34299;50.820;4.548;2024-01-06T10:15:20;2.63;;;2.33;;
11582;SDS011;34299;50.820;4.548;2024-01-06T10:17:48;4.03;;;2.27;;
11582;SDS011;34299;50.820;4.548;2024-01-06T10:20:15;3.67;;;2.57;;
11582;SDS011;34299;50.820;4.548;2024-01-06T10:22:45;3.83;;;2.67;;
11582;SDS011;34299;50.820;4.548;2024-01-06T10:25:13;3.20;;;2.37;;
11582;SDS011;34299;50.820;4.548;2024-01-06T10:27:41;4.80;;;2.40;;
11582;SDS011;34299;50.820;4.548;2024-01-06T10:30:09;2.37;;;2.17;;
11582;SDS011;34299;50.820;4.548;2024-01-06T10:32:38;2.97;;;2.30;;
11582;SDS011;34299;50.820;4.548;2024-01-06T10:35:06;3.20;;;2.10;;
11582;SDS011;34299;50.820;4.548;2024-01-06T10:37:34;2.40;;;2.20;;
11582;SDS011;34299;50.820;4.548;2024-01-06T10:40:07;3.00;;;2.63;;
11582;SDS011;34299;50.820;4.548;2024-01-06T10:42:36;6.10;;;2.87;;
11582;SDS011;34299;50.820;4.548;2024-01-06T10:45:05;3.23;;;2.07;;
11582;SDS011;34299;50.820;4.548;2024-01-06T10:47:34;6.07;;;2.53;;
11582;SDS011;34299;50.820;4.548;2024-01-06T10:50:01;4.13;;;2.80;;
11582;SDS011;34299;50.820;4.548;2024-01-06T10:52:29;5.47;;;2.40;;
11582;SDS011;34299;50.820;4.548;2024-01-06T10:54:57;3.03;;;2.10;;
11582;SDS011;34299;50.820;4.548;2024-01-06T10:57:25;4.17;;;2.53;;
11582;SDS011;34299;50.820;4.548;2024-01-06T10:59:55;5.50;;;2.93;;
11582;SDS011;34299;50.820;4.548;2024-01-06T11:02:24;2.63;;;1.97;;
11582;SDS011;34299;50.820;4.548;2024-01-06T11:04:52;4.30;;;3.00;;
11582;SDS011;34299;50.820;4.548;2024-01-06T11:07:20;2.97;;;2.30;;
11582;SDS011;34299;50.820;4.548;2024-01-06T11:09:50;6.27;;;2.60;;
11582;SDS011;34299;50.820;4.548;2024-01-06T11:12:20;3.70;;;2.27;;
11582;SDS011;34299;50.820;4.548;2024-01-06T11:14:47;3.23;;;2.33;;
11582;SDS011;34299;50.820;4.548;2024-01-06T11:17:22;3.40;;;2.47;;
11582;SDS011;34299;50.820;4.548;2024-01-06T11:20:18;5.53;;;2.73;;
11582;SDS011;34299;50.820;4.548;2024-01-06T11:22:46;4.30;;;2.20;;
11582;SDS011;34299;50.820;4.548;2024-01-06T11:25:14;5.03;;;2.10;;
11582;SDS011;34299;50.820;4.548;2024-01-06T11:27:42;2.20;;;2.00;;
11582;SDS011;34299;50.820;4.548;2024-01-06T11:30:19;2.33;;;2.13;;
11582;SDS011;34299;50.820;4.548;2024-01-06T11:32:48;3.93;;;2.93;;
11582;SDS011;34299;50.820;4.548;2024-01-06T11:35:18;3.10;;;2.33;;
11582;SDS011;34299;50.820;4.548;2024-01-06T11:37:55;2.50;;;2.30;;
11582;SDS011;34299;50.820;4.548;2024-01-06T11:40:24;3.50;;;2.83;;
11582;SDS011;34299;50.820;4.548;2024-01-06T11:42:58;5.47;;;2.83;;
11582;SDS011;34299;50.820;4.548;2024-01-06T11:45:30;3.80;;;2.90;;
11582;SDS011;34299;50.820;4.548;2024-01-06T11:48:00;4.17;;;2.40;;
11582;SDS011;34299;50.820;4.548;2024-01-06T11:50:28;3.77;;;3.00;;
11582;SDS011;34299;50.820;4.548;2024-01-06T11:52:55;3.43;;;3.10;;
11582;SDS011;34299;50.820;4.548;2024-01-06T11:55:22;4.20;;;3.07;;
11582;SDS011;34299;50.820;4.548;2024-01-06T11:57:53;3.57;;;2.23;;
11582;SDS011;34299;50.820;4.548;2024-01-06T12:00:21;3.50;;;2.30;;
11582;SDS011;34299;50.820;4.548;2024-01-06T12:02:48;3.70;;;2.57;;
11582;SDS011;34299;50.820;4.548;2024-01-06T12:05:17;3.47;;;2.43;;
11582;SDS011;34299;50.820;4.548;2024-01-06T12:07:52;4.97;;;3.33;;
11582;SDS011;34299;50.820;4.548;2024-01-06T12:10:21;2.77;;;2.30;;
11582;SDS011;34299;50.820;4.548;2024-01-06T12:12:56;3.77;;;2.77;;
11582;SDS011;34299;50.820;4.548;2024-01-06T12:15:25;4.93;;;3.37;;
11582;SDS011;34299;50.820;4.548;2024-01-06T12:17:53;5.07;;;2.27;;
11582;SDS011;34299;50.820;4.548;2024-01-06T12:20:22;3.47;;;2.83;;
11582;SDS011;34299;50.820;4.548;2024-01-06T12:22:50;4.10;;;2.40;;
11582;SDS011;34299;50.820;4.548;2024-01-06T12:25:20;3.00;;;2.10;;
11582;SDS011;34299;50.820;4.548;2024-01-06T12:27:47;4.27;;;3.10;;
11582;SDS011;34299;50.820;4.548;2024-01-06T12:30:15;4.93;;;2.67;;
11582;SDS011;34299;50.820;4.548;2024-01-06T12:32:44;4.60;;;2.43;;
11582;SDS011;34299;50.820;4.548;2024-01-06T12:35:12;3.23;;;2.07;;
11582;SDS011;34299;50.820;4.548;2024-01-06T12:37:41;4.63;;;3.20;;
11582;SDS011;34299;50.820;4.548;2024-01-06T12:40:08;5.73;;;2.80;;
11582;SDS011;34299;50.820;4.548;2024-01-06T12:42:35;4.00;;;2.80;;
11582;SDS011;34299;50.820;4.548;2024-01-06T12:45:03;5.90;;;3.70;;
11582;SDS011;34299;50.820;4.548;2024-01-06T12:47:30;3.37;;;2.63;;
11582;SDS011;34299;50.820;4.548;2024-01-06T12:49:58;2.93;;;2.63;;
11582;SDS011;34299;50.820;4.548;2024-01-06T12:52:25;4.27;;;2.70;;
11582;SDS011;34299;50.820;4.548;2024-01-06T12:54:53;3.93;;;2.70;;
11582;SDS011;34299;50.820;4.548;2024-01-06T12:57:20;4.87;;;3.43;;
11582;SDS011;34299;50.820;4.548;2024-01-06T12:59:47;4.17;;;3.17;;
11582;SDS011;34299;50.820;4.548;2024-01-06T13:02:14;9.20;;;3.27;;
11582;SDS011;34299;50.820;4.548;2024-01-06T13:04:41;5.73;;;3.13;;
11582;SDS011;34299;50.820;4.548;2024-01-06T13:07:08;4.70;;;2.57;;
11582;SDS011;34299;50.820;4.548;2024-01-06T13:09:35;5.87;;;3.23;;
11582;SDS011;34299;50.820;4.548;2024-01-06T13:12:04;4.53;;;3.07;;
11582;SDS011;34299;50.820;4.548;2024-01-06T13:14:32;3.17;;;2.50;;
11582;SDS011;34299;50.820;4.548;2024-01-06T13:16:59;5.73;;;2.97;;
11582;SDS011;34299;50.820;4.548;2024-01-06T13:19:26;3.43;;;2.83;;
11582;SDS011;34299;50.820;4.548;2024-01-06T13:21:53;5.50;;;3.00;;
11582;SDS011;34299;50.820;4.548;2024-01-06T13:24:21;3.57;;;2.83;;
11582;SDS011;34299;50.820;4.548;2024-01-06T13:26:48;4.50;;;2.87;;
11582;SDS011;34299;50.820;4.548;2024-01-06T13:29:16;4.27;;;2.90;;
11582;SDS011;34299;50.820;4.548;2024-01-06T13:31:43;7.03;;;3.10;;
11582;SDS011;34299;50.820;4.548;2024-01-06T13:34:10;3.70;;;2.67;;
11582;SDS011;34299;50.820;4.548;2024-01-06T13:36:38;4.53;;;2.57;;
11582;SDS011;34299;50.820;4.548;2024-01-06T13:39:05;5.37;;;3.43;;
11582;SDS011;34299;50.820;4.548;2024-01-06T13:41:32;6.77;;;2.87;;
11582;SDS011;34299;50.820;4.548;2024-01-06T13:43:59;3.80;;;2.67;;
11582;SDS011;34299;50.820;4.548;2024-01-06T13:46:27;5.67;;;2.87;;
11582;SDS011;34299;50.820;4.548;2024-01-06T13:48:54;3.67;;;2.63;;
11582;SDS011;34299;50.820;4.548;2024-01-06T13:51:21;4.33;;;3.30;;
11582;SDS011;34299;50.820;4.548;2024-01-06T13:53:48;3.77;;;2.90;;
11582;SDS011;34299;50.820;4.548;2024-01-06T13:56:15;5.97;;;2.90;;
11582;SDS011;34299;50.820;4.548;2024-01-06T13:58:42;4.43;;;2.53;;
11582;SDS011;34299;50.820;4.548;2024-01-06T14:01:09;3.60;;;2.17;;
11582;SDS011;34299;50.820;4.548;2024-01-06T14:03:38;3.43;;;2.70;;
11582;SDS011;34299;50.820;4.548;2024-01-06T14:06:05;3.33;;;2.43;;
11582;SDS011;34299;50.820;4.548;2024-01-06T14:08:32;4.00;;;2.17;;
11582;SDS011;34299;50.820;4.548;2024-01-06T14:10:59;5.03;;;2.83;;
11582;SDS011;34299;50.820;4.548;2024-01-06T14:13:26;4.30;;;2.40;;
11582;SDS011;34299;50.820;4.548;2024-01-06T14:15:53;4.23;;;2.33;;
11582;SDS011;34299;50.820;4.548;2024-01-06T14:18:21;4.43;;;2.40;;
11582;SDS011;34299;50.820;4.548;2024-01-06T14:20:50;4.73;;;2.80;;
11582;SDS011;34299;50.820;4.548;2024-01-06T14:23:17;3.23;;;2.77;;
11582;SDS011;34299;50.820;4.548;2024-01-06T14:25:45;4.23;;;2.50;;
11582;SDS011;34299;50.820;4.548;2024-01-06T14:28:12;5.07;;;2.90;;
11582;SDS011;34299;50.820;4.548;2024-01-06T14:30:39;3.67;;;2.60;;
11582;SDS011;34299;50.820;4.548;2024-01-06T14:33:06;4.10;;;2.23;;
11582;SDS011;34299;50.820;4.548;2024-01-06T14:35:34;2.60;;;1.90;;
11582;SDS011;34299;50.820;4.548;2024-01-06T14:38:02;3.57;;;2.60;;
11582;SDS011;34299;50.820;4.548;2024-01-06T14:40:30;7.07;;;2.77;;
11582;SDS011;34299;50.820;4.548;2024-01-06T14:42:57;3.87;;;2.03;;
11582;SDS011;34299;50.820;4.548;2024-01-06T14:45:27;4.30;;;2.87;;
11582;SDS011;34299;50.820;4.548;2024-01-06T14:47:54;5.03;;;3.33;;
11582;SDS011;34299;50.820;4.548;2024-01-06T14:50:21;8.20;;;3.83;;